sensor_id;sensor_type;location;lat;lon;timestamp;P1;durP1;ratioP1;P2;durP2;ratioP2
37885;SDS011;23726;52.520;13.434;2022-12-18T00:01:02;46.70;;;29.80;;
37885;SDS011;23726;52.520;13.434;2022-12-18T00:03:34;43.97;;;29.55;;
37885;SDS011;23726;52.520;13.434;2022-12-18T00:06:01;47.35;;;29.25;;
37885;SDS011;23726;52.520;13.434;2022-12-18T00:08:27;46.22;;;29.42;;
37885;SDS011;23726;52.520;13.434;2022-12-18T00:10:53;44.00;;;28.60;;
37885;SDS011;23726;52.520;13.434;2022-12-18T00:13:19;41.72;;;28.10;;
37885;SDS011;23726;52.520;13.434;2022-12-18T00:15:44;39.72;;;27.88;;
37885;SDS011;23726;52.520;13.434;2022-12-18T00:18:10;41.05;;;28.20;;
37885;SDS011;23726;52.520;13.434;2022-12-18T00:20:36;42.67;;;27.95;;
37885;SDS011;23726;52.520;13.434;2022-12-18T00:23:03;43.20;;;27.55;;
37885;SDS011;23726;52.520;13.434;2022-12-18T00:25:29;39.97;;;27.23;;
37885;SDS011;23726;52.520;13.434;2022-12-18T00:27:58;39.53;;;26.35;;
37885;SDS011;23726;52.520;13.434;2022-12-18T00:30:23;42.85;;;27.48;;
37885;SDS011;23726;52.520;13.434;2022-12-18T00:32:49;38.97;;;27.00;;
37885;SDS011;23726;52.520;13.434;2022-12-18T00:35:14;38.95;;;26.75;;
37885;SDS011;23726;52.520;13.434;2022-12-18T00:37:40;41.35;;;26.42;;
37885;SDS011;23726;52.520;13.434;2022-12-18T00:40:06;39.20;;;25.33;;
37885;SDS011;23726;52.520;13.434;2022-12-18T00:42:32;39.50;;;26.05;;
37885;SDS011;23726;52.520;13.434;2022-12-18T00:45:16;41.05;;;26.90;;
37885;SDS011;23726;52.520;13.434;2022-12-18T00:47:43;38.53;;;26.23;;
37885;SDS011;23726;52.520;13.434;2022-12-18T00:50:09;38.00;;;26.17;;
37885;SDS011;23726;52.520;13.434;2022-12-18T00:52:35;38.28;;;25.70;;
37885;SDS011;23726;52.520;13.434;2022-12-18T00:55:04;35.97;;;25.50;;
37885;SDS011;23726;52.520;13.434;2022-12-18T00:57:30;37.05;;;25.95;;
37885;SDS011;23726;52.520;13.434;2022-12-18T00:59:56;38.08;;;25.00;;
37885;SDS011;23726;52.520;13.434;2022-12-18T01:02:22;38.03;;;25.63;;
37885;SDS011;23726;52.520;13.434;2022-12-18T01:04:48;37.03;;;25.10;;
37885;SDS011;23726;52.520;13.434;2022-12-18T01:07:13;36.25;;;24.77;;
37885;SDS011;23726;52.520;13.434;2022-12-18T01:09:39;37.25;;;25.17;;
37885;SDS011;23726;52.520;13.434;2022-12-18T01:12:05;36.85;;;25.73;;
37885;SDS011;23726;52.520;13.434;2022-12-18T01:14:31;38.33;;;24.98;;
37885;SDS011;23726;52.520;13.434;2022-12-18T01:16:58;38.65;;;25.13;;
37885;SDS011;23726;52.520;13.434;2022-12-18T01:19:23;34.60;;;24.00;;
37885;SDS011;23726;52.520;13.434;2022-12-18T01:21:49;34.85;;;23.55;;
37885;SDS011;23726;52.520;13.434;2022-12-18T01:24:16;33.33;;;23.52;;
37885;SDS011;23726;52.520;13.434;2022-12-18T01:26:42;33.25;;;23.10;;
37885;SDS011;23726;52.520;13.434;2022-12-18T01:29:07;34.95;;;24.10;;
37885;SDS011;23726;52.520;13.434;2022-12-18T01:31:33;33.83;;;23.35;;
37885;SDS011;23726;52.520;13.434;2022-12-18T01:34:02;34.42;;;23.83;;
37885;SDS011;23726;52.520;13.434;2022-12-18T01:36:30;33.38;;;22.88;;
37885;SDS011;23726;52.520;13.434;2022-12-18T01:39:03;34.30;;;22.88;;
37885;SDS011;23726;52.520;13.434;2022-12-18T01:41:35;35.38;;;23.58;;
37885;SDS011;23726;52.520;13.434;2022-12-18T01:47:18;34.22;;;23.95;;
37885;SDS011;23726;52.520;13.434;2022-12-18T01:49:45;33.53;;;22.77;;
37885;SDS011;23726;52.520;13.434;2022-12-18T01:52:11;33.72;;;23.52;;
37885;SDS011;23726;52.520;13.434;2022-12-18T01:54:37;34.70;;;23.70;;
37885;SDS011;23726;52.520;13.434;2022-12-18T01:57:03;32.30;;;22.58;;
37885;SDS011;23726;52.520;13.434;2022-12-18T01:59:28;30.88;;;21.58;;
37885;SDS011;23726;52.520;13.434;2022-12-18T02:01:56;33.50;;;22.30;;
37885;SDS011;23726;52.520;13.434;2022-12-18T02:04:25;34.53;;;23.15;;
37885;SDS011;23726;52.520;13.434;2022-12-18T02:06:55;30.67;;;22.48;;
37885;SDS011;23726;52.520;13.434;2022-12-18T02:09:26;30.17;;;21.15;;
37885;SDS011;23726;52.520;13.434;2022-12-18T02:14:37;30.50;;;21.95;;
37885;SDS011;23726;52.520;13.434;2022-12-18T02:17:13;32.42;;;22.02;;
37885;SDS011;23726;52.520;13.434;2022-12-18T02:19:54;30.40;;;20.77;;
37885;SDS011;23726;52.520;13.434;2022-12-18T02:28:40;31.37;;;21.43;;
37885;SDS011;23726;52.520;13.434;2022-12-18T02:31:10;30.77;;;21.90;;
37885;SDS011;23726;52.520;13.434;2022-12-18T02:33:40;30.30;;;21.25;;
37885;SDS011;23726;52.520;13.434;2022-12-18T02:36:09;30.35;;;21.23;;
37885;SDS011;23726;52.520;13.434;2022-12-18T02:38:35;29.77;;;20.67;;
37885;SDS011;23726;52.520;13.434;2022-12-18T02:41:02;28.25;;;21.20;;
37885;SDS011;23726;52.520;13.434;2022-12-18T02:43:29;29.92;;;20.75;;
37885;SDS011;23726;52.520;13.434;2022-12-18T02:45:59;30.75;;;20.25;;
37885;SDS011;23726;52.520;13.434;2022-12-18T02:48:45;28.75;;;19.92;;
37885;SDS011;23726;52.520;13.434;2022-12-18T02:51:21;30.52;;;20.77;;
37885;SDS011;23726;52.520;13.434;2022-12-18T02:53:58;30.20;;;20.63;;
37885;SDS011;23726;52.520;13.434;2022-12-18T02:56:34;29.88;;;20.95;;
37885;SDS011;23726;52.520;13.434;2022-12-18T02:59:15;30.33;;;20.48;;
37885;SDS011;23726;52.520;13.434;2022-12-18T03:04:19;30.02;;;20.65;;
37885;SDS011;23726;52.520;13.434;2022-12-18T03:06:57;26.58;;;19.40;;
37885;SDS011;23726;52.520;13.434;2022-12-18T03:09:32;26.52;;;18.98;;
37885;SDS011;23726;52.520;13.434;2022-12-18T03:12:07;29.00;;;20.23;;
37885;SDS011;23726;52.520;13.434;2022-12-18T03:14:53;28.42;;;19.38;;
37885;SDS011;23726;52.520;13.434;2022-12-18T03:17:20;28.20;;;19.58;;
37885;SDS011;23726;52.520;13.434;2022-12-18T03:19:52;27.42;;;19.80;;
37885;SDS011;23726;52.520;13.434;2022-12-18T03:22:22;27.42;;;19.50;;
37885;SDS011;23726;52.520;13.434;2022-12-18T03:24:50;28.08;;;20.13;;
37885;SDS011;23726;52.520;13.434;2022-12-18T03:27:18;26.40;;;18.80;;
37885;SDS011;23726;52.520;13.434;2022-12-18T03:29:50;31.88;;;20.42;;
37885;SDS011;23726;52.520;13.434;2022-12-18T03:32:29;26.55;;;18.08;;
37885;SDS011;23726;52.520;13.434;2022-12-18T03:34:58;28.17;;;20.05;;
37885;SDS011;23726;52.520;13.434;2022-12-18T03:37:27;27.40;;;18.97;;
37885;SDS011;23726;52.520;13.434;2022-12-18T03:39:53;26.35;;;19.30;;
37885;SDS011;23726;52.520;13.434;2022-12-18T03:42:23;26.58;;;18.90;;
37885;SDS011;23726;52.520;13.434;2022-12-18T03:44:58;25.65;;;19.15;;
37885;SDS011;23726;52.520;13.434;2022-12-18T03:47:28;27.95;;;19.17;;
37885;SDS011;23726;52.520;13.434;2022-12-18T03:50:00;29.47;;;20.53;;
37885;SDS011;23726;52.520;13.434;2022-12-18T03:52:48;27.42;;;19.08;;
37885;SDS011;23726;52.520;13.434;2022-12-18T03:55:17;27.50;;;18.55;;
37885;SDS011;23726;52.520;13.434;2022-12-18T03:57:47;27.30;;;18.65;;
37885;SDS011;23726;52.520;13.434;2022-12-18T04:00:15;24.83;;;18.13;;
37885;SDS011;23726;52.520;13.434;2022-12-18T04:02:45;26.85;;;18.73;;
37885;SDS011;23726;52.520;13.434;2022-12-18T04:05:17;27.73;;;17.63;;
37885;SDS011;23726;52.520;13.434;2022-12-18T04:07:44;25.05;;;18.25;;
37885;SDS011;23726;52.520;13.434;2022-12-18T04:10:12;23.92;;;17.40;;
37885;SDS011;23726;52.520;13.434;2022-12-18T04:12:44;25.42;;;18.48;;
37885;SDS011;23726;52.520;13.434;2022-12-18T04:15:10;25.98;;;18.38;;
37885;SDS011;23726;52.520;13.434;2022-12-18T04:17:38;26.05;;;17.92;;
37885;SDS011;23726;52.520;13.434;2022-12-18T04:20:05;23.83;;;17.50;;
37885;SDS011;23726;52.520;13.434;2022-12-18T04:22:30;25.58;;;18.60;;
37885;SDS011;23726;52.520;13.434;2022-12-18T04:24:56;24.77;;;17.25;;
37885;SDS011;23726;52.520;13.434;2022-12-18T04:27:22;26.80;;;17.90;;
37885;SDS011;23726;52.520;13.434;2022-12-18T04:29:47;24.58;;;17.70;;
37885;SDS011;23726;52.520;13.434;2022-12-18T04:32:13;24.65;;;17.70;;
37885;SDS011;23726;52.520;13.434;2022-12-18T04:34:38;23.42;;;17.67;;
37885;SDS011;23726;52.520;13.434;2022-12-18T04:37:05;26.60;;;18.33;;
37885;SDS011;23726;52.520;13.434;2022-12-18T04:39:31;24.55;;;18.33;;
37885;SDS011;23726;52.520;13.434;2022-12-18T04:41:58;23.08;;;16.55;;
37885;SDS011;23726;52.520;13.434;2022-12-18T04:44:23;26.17;;;17.27;;
37885;SDS011;23726;52.520;13.434;2022-12-18T04:46:50;23.52;;;16.83;;
37885;SDS011;23726;52.520;13.434;2022-12-18T04:49:17;24.83;;;17.08;;
37885;SDS011;23726;52.520;13.434;2022-12-18T04:51:44;24.00;;;17.10;;
37885;SDS011;23726;52.520;13.434;2022-12-18T04:54:10;22.38;;;17.23;;
37885;SDS011;23726;52.520;13.434;2022-12-18T04:56:35;24.80;;;17.63;;
37885;SDS011;23726;52.520;13.434;2022-12-18T04:59:02;22.63;;;16.65;;
37885;SDS011;23726;52.520;13.434;2022-12-18T05:01:28;22.08;;;16.13;;
37885;SDS011;23726;52.520;13.434;2022-12-18T05:03:54;23.15;;;16.90;;
37885;SDS011;23726;52.520;13.434;2022-12-18T05:06:19;22.25;;;16.63;;
37885;SDS011;23726;52.520;13.434;2022-12-18T05:08:45;22.60;;;15.90;;
37885;SDS011;23726;52.520;13.434;2022-12-18T05:11:12;23.98;;;16.70;;
37885;SDS011;23726;52.520;13.434;2022-12-18T05:13:40;23.55;;;16.60;;
37885;SDS011;23726;52.520;13.434;2022-12-18T05:16:06;21.45;;;15.73;;
37885;SDS011;23726;52.520;13.434;2022-12-18T05:18:32;21.00;;;15.85;;
37885;SDS011;23726;52.520;13.434;2022-12-18T05:20:58;25.30;;;17.20;;
37885;SDS011;23726;52.520;13.434;2022-12-18T05:23:24;23.25;;;16.42;;
37885;SDS011;23726;52.520;13.434;2022-12-18T05:25:50;20.67;;;15.32;;
37885;SDS011;23726;52.520;13.434;2022-12-18T05:28:17;21.58;;;16.10;;
37885;SDS011;23726;52.520;13.434;2022-12-18T05:30:48;22.17;;;16.88;;
37885;SDS011;23726;52.520;13.434;2022-12-18T05:33:16;21.80;;;15.88;;
37885;SDS011;23726;52.520;13.434;2022-12-18T05:35:42;20.88;;;16.20;;
37885;SDS011;23726;52.520;13.434;2022-12-18T05:38:07;20.42;;;15.82;;
37885;SDS011;23726;52.520;13.434;2022-12-18T05:40:33;21.42;;;15.68;;
37885;SDS011;23726;52.520;13.434;2022-12-18T05:42:59;19.30;;;14.73;;
37885;SDS011;23726;52.520;13.434;2022-12-18T05:45:25;20.33;;;15.48;;
37885;SDS011;23726;52.520;13.434;2022-12-18T05:47:50;19.42;;;15.38;;
37885;SDS011;23726;52.520;13.434;2022-12-18T05:50:17;22.38;;;15.60;;
37885;SDS011;23726;52.520;13.434;2022-12-18T05:52:43;19.98;;;15.38;;
37885;SDS011;23726;52.520;13.434;2022-12-18T05:55:09;21.02;;;15.60;;
37885;SDS011;23726;52.520;13.434;2022-12-18T05:57:34;21.77;;;15.20;;
37885;SDS011;23726;52.520;13.434;2022-12-18T06:00:00;21.40;;;15.07;;
37885;SDS011;23726;52.520;13.434;2022-12-18T06:02:26;21.70;;;15.02;;
37885;SDS011;23726;52.520;13.434;2022-12-18T06:04:51;20.10;;;15.25;;
37885;SDS011;23726;52.520;13.434;2022-12-18T06:07:17;20.77;;;15.32;;
37885;SDS011;23726;52.520;13.434;2022-12-18T06:09:42;20.45;;;14.95;;
37885;SDS011;23726;52.520;13.434;2022-12-18T06:12:09;20.42;;;14.95;;
37885;SDS011;23726;52.520;13.434;2022-12-18T06:14:35;19.70;;;15.00;;
37885;SDS011;23726;52.520;13.434;2022-12-18T06:17:01;21.33;;;15.60;;
37885;SDS011;23726;52.520;13.434;2022-12-18T06:19:28;19.88;;;14.90;;
37885;SDS011;23726;52.520;13.434;2022-12-18T06:21:54;22.35;;;15.43;;
37885;SDS011;23726;52.520;13.434;2022-12-18T06:24:19;20.95;;;15.55;;
37885;SDS011;23726;52.520;13.434;2022-12-18T06:26:45;21.33;;;14.90;;
37885;SDS011;23726;52.520;13.434;2022-12-18T06:29:11;19.08;;;14.35;;
37885;SDS011;23726;52.520;13.434;2022-12-18T06:31:36;19.90;;;14.70;;
37885;SDS011;23726;52.520;13.434;2022-12-18T06:34:03;21.00;;;15.55;;
37885;SDS011;23726;52.520;13.434;2022-12-18T06:36:30;21.33;;;15.07;;
37885;SDS011;23726;52.520;13.434;2022-12-18T06:38:56;20.17;;;14.63;;
37885;SDS011;23726;52.520;13.434;2022-12-18T06:41:22;21.55;;;15.23;;
37885;SDS011;23726;52.520;13.434;2022-12-18T06:43:48;18.23;;;14.20;;
37885;SDS011;23726;52.520;13.434;2022-12-18T06:46:14;19.95;;;14.52;;
37885;SDS011;23726;52.520;13.434;2022-12-18T06:48:40;20.33;;;14.65;;
37885;SDS011;23726;52.520;13.434;2022-12-18T06:51:07;19.50;;;14.45;;
37885;SDS011;23726;52.520;13.434;2022-12-18T06:53:33;19.33;;;13.85;;
37885;SDS011;23726;52.520;13.434;2022-12-18T06:56:06;19.17;;;14.18;;
37885;SDS011;23726;52.520;13.434;2022-12-18T06:58:32;19.52;;;14.20;;
37885;SDS011;23726;52.520;13.434;2022-12-18T07:01:01;19.42;;;14.43;;
37885;SDS011;23726;52.520;13.434;2022-12-18T07:05:57;19.58;;;14.40;;
37885;SDS011;23726;52.520;13.434;2022-12-18T07:08:22;16.17;;;13.02;;
37885;SDS011;23726;52.520;13.434;2022-12-18T07:10:48;20.35;;;14.88;;
37885;SDS011;23726;52.520;13.434;2022-12-18T07:13:16;17.15;;;13.77;;
37885;SDS011;23726;52.520;13.434;2022-12-18T07:15:43;18.25;;;13.93;;
37885;SDS011;23726;52.520;13.434;2022-12-18T07:18:09;19.65;;;14.75;;
37885;SDS011;23726;52.520;13.434;2022-12-18T07:20:36;18.60;;;14.60;;
37885;SDS011;23726;52.520;13.434;2022-12-18T07:23:02;18.27;;;13.60;;
37885;SDS011;23726;52.520;13.434;2022-12-18T07:25:30;20.33;;;14.50;;
37885;SDS011;23726;52.520;13.434;2022-12-18T07:27:59;19.40;;;14.55;;
37885;SDS011;23726;52.520;13.434;2022-12-18T07:30:27;18.45;;;13.98;;
37885;SDS011;23726;52.520;13.434;2022-12-18T07:32:53;20.02;;;14.65;;
37885;SDS011;23726;52.520;13.434;2022-12-18T07:35:18;17.05;;;13.45;;
37885;SDS011;23726;52.520;13.434;2022-12-18T07:37:44;17.35;;;13.15;;
37885;SDS011;23726;52.520;13.434;2022-12-18T07:40:10;17.23;;;13.27;;
37885;SDS011;23726;52.520;13.434;2022-12-18T07:42:36;18.05;;;13.52;;
37885;SDS011;23726;52.520;13.434;2022-12-18T07:45:02;18.13;;;13.63;;
37885;SDS011;23726;52.520;13.434;2022-12-18T07:47:28;18.00;;;13.35;;
37885;SDS011;23726;52.520;13.434;2022-12-18T07:49:54;18.48;;;14.13;;
37885;SDS011;23726;52.520;13.434;2022-12-18T07:52:20;21.10;;;14.23;;
37885;SDS011;23726;52.520;13.434;2022-12-18T07:54:47;17.30;;;13.32;;
37885;SDS011;23726;52.520;13.434;2022-12-18T07:57:14;18.98;;;13.55;;
37885;SDS011;23726;52.520;13.434;2022-12-18T07:59:41;17.00;;;13.18;;
37885;SDS011;23726;52.520;13.434;2022-12-18T08:02:06;17.52;;;12.95;;
37885;SDS011;23726;52.520;13.434;2022-12-18T08:04:34;18.50;;;13.40;;
37885;SDS011;23726;52.520;13.434;2022-12-18T08:07:00;17.35;;;13.63;;
37885;SDS011;23726;52.520;13.434;2022-12-18T08:09:26;16.42;;;12.80;;
37885;SDS011;23726;52.520;13.434;2022-12-18T08:11:57;19.17;;;13.45;;
37885;SDS011;23726;52.520;13.434;2022-12-18T08:14:22;18.08;;;13.65;;
37885;SDS011;23726;52.520;13.434;2022-12-18T08:16:48;18.23;;;14.02;;
37885;SDS011;23726;52.520;13.434;2022-12-18T08:19:15;17.90;;;13.30;;
37885;SDS011;23726;52.520;13.434;2022-12-18T08:21:41;17.70;;;13.02;;
37885;SDS011;23726;52.520;13.434;2022-12-18T08:24:08;16.45;;;13.02;;
37885;SDS011;23726;52.520;13.434;2022-12-18T08:26:35;17.25;;;12.88;;
37885;SDS011;23726;52.520;13.434;2022-12-18T08:29:00;17.77;;;12.82;;
37885;SDS011;23726;52.520;13.434;2022-12-18T08:31:28;17.17;;;13.35;;
37885;SDS011;23726;52.520;13.434;2022-12-18T08:33:55;18.48;;;13.40;;
37885;SDS011;23726;52.520;13.434;2022-12-18T08:36:21;16.63;;;12.40;;
37885;SDS011;23726;52.520;13.434;2022-12-18T08:38:49;16.88;;;13.13;;
37885;SDS011;23726;52.520;13.434;2022-12-18T08:41:15;16.90;;;12.82;;
37885;SDS011;23726;52.520;13.434;2022-12-18T08:43:42;15.45;;;12.20;;
37885;SDS011;23726;52.520;13.434;2022-12-18T08:46:27;17.52;;;12.07;;
37885;SDS011;23726;52.520;13.434;2022-12-18T08:48:58;17.63;;;13.25;;
37885;SDS011;23726;52.520;13.434;2022-12-18T08:51:25;18.35;;;12.52;;
37885;SDS011;23726;52.520;13.434;2022-12-18T08:53:50;16.83;;;12.52;;
37885;SDS011;23726;52.520;13.434;2022-12-18T08:56:17;15.40;;;12.23;;
37885;SDS011;23726;52.520;13.434;2022-12-18T08:58:43;16.13;;;12.80;;
37885;SDS011;23726;52.520;13.434;2022-12-18T09:01:09;17.20;;;12.27;;
37885;SDS011;23726;52.520;13.434;2022-12-18T09:03:36;15.63;;;12.18;;
37885;SDS011;23726;52.520;13.434;2022-12-18T09:06:02;15.48;;;11.68;;
37885;SDS011;23726;52.520;13.434;2022-12-18T09:08:27;16.10;;;12.38;;
37885;SDS011;23726;52.520;13.434;2022-12-18T09:10:53;15.07;;;11.98;;
37885;SDS011;23726;52.520;13.434;2022-12-18T09:13:21;15.90;;;12.77;;
37885;SDS011;23726;52.520;13.434;2022-12-18T09:15:48;17.55;;;12.85;;
37885;SDS011;23726;52.520;13.434;2022-12-18T09:18:19;17.95;;;12.70;;
37885;SDS011;23726;52.520;13.434;2022-12-18T09:20:46;14.88;;;11.35;;
37885;SDS011;23726;52.520;13.434;2022-12-18T09:23:12;15.73;;;12.40;;
37885;SDS011;23726;52.520;13.434;2022-12-18T09:25:38;14.45;;;11.25;;
37885;SDS011;23726;52.520;13.434;2022-12-18T09:28:09;15.00;;;12.00;;
37885;SDS011;23726;52.520;13.434;2022-12-18T09:30:39;15.00;;;11.85;;
37885;SDS011;23726;52.520;13.434;2022-12-18T09:33:06;15.02;;;11.60;;
37885;SDS011;23726;52.520;13.434;2022-12-18T09:35:32;15.45;;;12.18;;
37885;SDS011;23726;52.520;13.434;2022-12-18T09:37:57;17.17;;;11.88;;
37885;SDS011;23726;52.520;13.434;2022-12-18T09:40:23;16.50;;;11.80;;
37885;SDS011;23726;52.520;13.434;2022-12-18T09:42:56;18.95;;;12.30;;
37885;SDS011;23726;52.520;13.434;2022-12-18T09:45:25;15.43;;;11.23;;
37885;SDS011;23726;52.520;13.434;2022-12-18T09:47:51;15.73;;;11.75;;
37885;SDS011;23726;52.520;13.434;2022-12-18T09:50:26;14.63;;;11.18;;
37885;SDS011;23726;52.520;13.434;2022-12-18T09:52:59;15.13;;;11.57;;
37885;SDS011;23726;52.520;13.434;2022-12-18T09:55:35;14.88;;;11.48;;
37885;SDS011;23726;52.520;13.434;2022-12-18T09:58:17;15.40;;;11.60;;
37885;SDS011;23726;52.520;13.434;2022-12-18T10:00:53;14.50;;;11.40;;
37885;SDS011;23726;52.520;13.434;2022-12-18T10:03:20;15.20;;;11.18;;
37885;SDS011;23726;52.520;13.434;2022-12-18T10:14:44;15.48;;;11.32;;
37885;SDS011;23726;52.520;13.434;2022-12-18T10:17:45;14.88;;;11.27;;
37885;SDS011;23726;52.520;13.434;2022-12-18T10:19:39;16.15;;;11.60;;
37885;SDS011;23726;52.520;13.434;2022-12-18T10:27:27;15.88;;;11.15;;
37885;SDS011;23726;52.520;13.434;2022-12-18T10:29:55;13.65;;;10.68;;
37885;SDS011;23726;52.520;13.434;2022-12-18T10:32:22;14.35;;;10.75;;
37885;SDS011;23726;52.520;13.434;2022-12-18T10:34:51;14.80;;;11.15;;
37885;SDS011;23726;52.520;13.434;2022-12-18T10:37:19;13.60;;;10.68;;
37885;SDS011;23726;52.520;13.434;2022-12-18T10:40:04;16.15;;;11.60;;
37885;SDS011;23726;52.520;13.434;2022-12-18T10:42:39;12.65;;;10.55;;
37885;SDS011;23726;52.520;13.434;2022-12-18T10:45:11;14.85;;;10.98;;
37885;SDS011;23726;52.520;13.434;2022-12-18T10:47:45;14.20;;;10.88;;
37885;SDS011;23726;52.520;13.434;2022-12-18T10:50:20;14.70;;;11.38;;
37885;SDS011;23726;52.520;13.434;2022-12-18T10:52:53;14.60;;;10.93;;
37885;SDS011;23726;52.520;13.434;2022-12-18T10:55:24;13.95;;;10.93;;
37885;SDS011;23726;52.520;13.434;2022-12-18T10:58:39;14.27;;;11.60;;
37885;SDS011;23726;52.520;13.434;2022-12-18T11:00:46;14.07;;;10.95;;
37885;SDS011;23726;52.520;13.434;2022-12-18T11:03:29;14.77;;;10.95;;
37885;SDS011;23726;52.520;13.434;2022-12-18T11:08:29;12.85;;;10.35;;
37885;SDS011;23726;52.520;13.434;2022-12-18T11:10:54;14.02;;;10.25;;
37885;SDS011;23726;52.520;13.434;2022-12-18T11:13:21;13.35;;;10.23;;
37885;SDS011;23726;52.520;13.434;2022-12-18T11:15:49;15.73;;;10.63;;
37885;SDS011;23726;52.520;13.434;2022-12-18T11:18:22;13.75;;;10.25;;
37885;SDS011;23726;52.520;13.434;2022-12-18T11:21:16;13.73;;;10.40;;
37885;SDS011;23726;52.520;13.434;2022-12-18T11:23:50;13.98;;;10.23;;
37885;SDS011;23726;52.520;13.434;2022-12-18T11:26:17;15.45;;;10.50;;
37885;SDS011;23726;52.520;13.434;2022-12-18T11:28:47;13.45;;;10.70;;
37885;SDS011;23726;52.520;13.434;2022-12-18T11:31:28;13.52;;;10.52;;
37885;SDS011;23726;52.520;13.434;2022-12-18T11:36:26;12.93;;;10.23;;
37885;SDS011;23726;52.520;13.434;2022-12-18T11:38:56;13.32;;;10.18;;
37885;SDS011;23726;52.520;13.434;2022-12-18T11:41:34;12.60;;;9.68;;
37885;SDS011;23726;52.520;13.434;2022-12-18T11:44:26;14.68;;;9.98;;
37885;SDS011;23726;52.520;13.434;2022-12-18T11:49:56;13.43;;;10.25;;
37885;SDS011;23726;52.520;13.434;2022-12-18T11:52:28;13.07;;;10.07;;
37885;SDS011;23726;52.520;13.434;2022-12-18T11:55:13;14.07;;;9.93;;
37885;SDS011;23726;52.520;13.434;2022-12-18T11:58:03;12.15;;;9.88;;
37885;SDS011;23726;52.520;13.434;2022-12-18T12:12:23;12.05;;;9.13;;
37885;SDS011;23726;52.520;13.434;2022-12-18T12:18:08;14.02;;;10.13;;
37885;SDS011;23726;52.520;13.434;2022-12-18T12:20:53;13.60;;;10.43;;
37885;SDS011;23726;52.520;13.434;2022-12-18T12:31:20;12.30;;;9.93;;
37885;SDS011;23726;52.520;13.434;2022-12-18T12:34:20;11.95;;;9.25;;
37885;SDS011;23726;52.520;13.434;2022-12-18T12:39:40;13.20;;;9.77;;
37885;SDS011;23726;52.520;13.434;2022-12-18T12:42:12;13.13;;;9.90;;
37885;SDS011;23726;52.520;13.434;2022-12-18T12:45:33;14.32;;;9.98;;
37885;SDS011;23726;52.520;13.434;2022-12-18T12:48:04;12.40;;;9.48;;
37885;SDS011;23726;52.520;13.434;2022-12-18T12:50:35;14.23;;;9.43;;
37885;SDS011;23726;52.520;13.434;2022-12-18T12:53:05;13.45;;;9.80;;
37885;SDS011;23726;52.520;13.434;2022-12-18T12:55:38;12.05;;;9.50;;
37885;SDS011;23726;52.520;13.434;2022-12-18T12:58:08;13.55;;;9.75;;
37885;SDS011;23726;52.520;13.434;2022-12-18T13:00:54;12.68;;;9.32;;
37885;SDS011;23726;52.520;13.434;2022-12-18T13:09:02;12.07;;;9.52;;
37885;SDS011;23726;52.520;13.434;2022-12-18T13:11:47;12.82;;;9.90;;
37885;SDS011;23726;52.520;13.434;2022-12-18T13:20:02;11.55;;;8.77;;
37885;SDS011;23726;52.520;13.434;2022-12-18T13:22:34;13.00;;;9.52;;
37885;SDS011;23726;52.520;13.434;2022-12-18T13:25:00;11.55;;;9.18;;
37885;SDS011;23726;52.520;13.434;2022-12-18T13:35:40;123.65;;;58.65;;
37885;SDS011;23726;52.520;13.434;2022-12-18T13:41:07;123.63;;;58.45;;
37885;SDS011;23726;52.520;13.434;2022-12-18T13:43:48;118.88;;;53.22;;
37885;SDS011;23726;52.520;13.434;2022-12-18T13:51:50;113.90;;;50.67;;
37885;SDS011;23726;52.520;13.434;2022-12-18T13:54:20;108.75;;;55.60;;
37885;SDS011;23726;52.520;13.434;2022-12-18T13:57:01;110.03;;;56.38;;
37885;SDS011;23726;52.520;13.434;2022-12-18T13:59:34;114.10;;;58.53;;
37885;SDS011;23726;52.520;13.434;2022-12-18T14:02:18;111.55;;;59.20;;
37885;SDS011;23726;52.520;13.434;2022-12-18T14:04:47;111.85;;;58.78;;
37885;SDS011;23726;52.520;13.434;2022-12-18T14:07:19;115.50;;;60.15;;
37885;SDS011;23726;52.520;13.434;2022-12-18T14:09:50;111.22;;;59.20;;
37885;SDS011;23726;52.520;13.434;2022-12-18T14:12:20;116.95;;;60.92;;
37885;SDS011;23726;52.520;13.434;2022-12-18T14:18:20;116.40;;;60.72;;
37885;SDS011;23726;52.520;13.434;2022-12-18T14:20:50;120.53;;;59.30;;
37885;SDS011;23726;52.520;13.434;2022-12-18T14:25:57;110.25;;;57.90;;
37885;SDS011;23726;52.520;13.434;2022-12-18T14:28:23;109.20;;;57.05;;
37885;SDS011;23726;52.520;13.434;2022-12-18T14:30:50;104.57;;;57.90;;
37885;SDS011;23726;52.520;13.434;2022-12-18T14:33:24;109.75;;;56.10;;
37885;SDS011;23726;52.520;13.434;2022-12-18T14:41:14;107.18;;;56.60;;
37885;SDS011;23726;52.520;13.434;2022-12-18T14:43:42;110.53;;;54.97;;
37885;SDS011;23726;52.520;13.434;2022-12-18T14:48:57;107.63;;;54.50;;
37885;SDS011;23726;52.520;13.434;2022-12-18T14:51:28;93.05;;;51.22;;
37885;SDS011;23726;52.520;13.434;2022-12-18T14:56:35;98.03;;;52.00;;
37885;SDS011;23726;52.520;13.434;2022-12-18T14:59:15;99.03;;;50.40;;
37885;SDS011;23726;52.520;13.434;2022-12-18T15:01:45;95.97;;;51.83;;
37885;SDS011;23726;52.520;13.434;2022-12-18T15:04:33;88.78;;;49.55;;
37885;SDS011;23726;52.520;13.434;2022-12-18T15:07:13;96.40;;;52.70;;
37885;SDS011;23726;52.520;13.434;2022-12-18T15:09:40;93.00;;;49.88;;
37885;SDS011;23726;52.520;13.434;2022-12-18T15:12:28;88.68;;;49.58;;
37885;SDS011;23726;52.520;13.434;2022-12-18T15:15:02;81.32;;;47.80;;
37885;SDS011;23726;52.520;13.434;2022-12-18T15:17:28;84.65;;;48.25;;
37885;SDS011;23726;52.520;13.434;2022-12-18T15:20:01;89.55;;;49.35;;
37885;SDS011;23726;52.520;13.434;2022-12-18T15:22:34;84.72;;;47.38;;
37885;SDS011;23726;52.520;13.434;2022-12-18T15:25:02;87.03;;;47.08;;
37885;SDS011;23726;52.520;13.434;2022-12-18T15:27:47;83.68;;;47.47;;
37885;SDS011;23726;52.520;13.434;2022-12-18T15:30:17;78.70;;;46.95;;
37885;SDS011;23726;52.520;13.434;2022-12-18T15:32:45;84.60;;;47.75;;
37885;SDS011;23726;52.520;13.434;2022-12-18T15:35:22;80.30;;;46.05;;
37885;SDS011;23726;52.520;13.434;2022-12-18T15:37:49;84.32;;;46.67;;
37885;SDS011;23726;52.520;13.434;2022-12-18T15:40:20;85.38;;;46.47;;
37885;SDS011;23726;52.520;13.434;2022-12-18T15:42:47;82.30;;;46.08;;
37885;SDS011;23726;52.520;13.434;2022-12-18T15:45:34;84.43;;;45.50;;
37885;SDS011;23726;52.520;13.434;2022-12-18T15:49:02;79.35;;;46.30;;
37885;SDS011;23726;52.520;13.434;2022-12-18T15:50:59;81.80;;;46.00;;
37885;SDS011;23726;52.520;13.434;2022-12-18T15:53:30;77.47;;;44.65;;
37885;SDS011;23726;52.520;13.434;2022-12-18T15:55:58;79.40;;;44.30;;
37885;SDS011;23726;52.520;13.434;2022-12-18T15:58:43;78.28;;;44.05;;
37885;SDS011;23726;52.520;13.434;2022-12-18T16:01:11;80.70;;;43.67;;
37885;SDS011;23726;52.520;13.434;2022-12-18T16:03:37;75.00;;;42.85;;
37885;SDS011;23726;52.520;13.434;2022-12-18T16:06:03;72.25;;;42.92;;
37885;SDS011;23726;52.520;13.434;2022-12-18T16:08:29;78.82;;;43.22;;
37885;SDS011;23726;52.520;13.434;2022-12-18T16:10:55;75.43;;;42.90;;
37885;SDS011;23726;52.520;13.434;2022-12-18T16:13:22;70.95;;;41.35;;